Time;durP1;ratioP1;P1;durP2;ratioP2;P2;SDS_P1;SDS_P2;PMS_P1;PMS_P2;Temp;Humidity;BMP_temperature;BMP_pressure;BME280_temperature;BME280_humidity;BME280_pressure;Samples;Min_cycle;Max_cycle;Signal;HPM_P1;HPM_P2
2023/06/03 00:00:14;;;;;;;6.63;2.00;;;13.30;99.90;;;;;;4937895;29;20698;-65
2023/06/03 00:02:41;;;;;;;7.93;2.33;;;13.30;99.90;;;;;;4938006;29;20204;-65
2023/06/03 00:05:09;;;;;;;8.97;2.10;;;13.30;99.90;;;;;;4937913;29;20295;-65
2023/06/03 00:07:36;;;;;;;4.10;1.70;;;13.30;99.90;;;;;;4937730;29;20229;-65
2023/06/03 00:10:03;;;;;;;2.67;1.90;;;13.40;99.90;;;;;;4937776;29;20225;-65
2023/06/03 00:12:31;;;;;;;7.27;2.83;;;13.50;99.90;;;;;;4937414;29;20220;-64
2023/06/03 00:14:58;;;;;;;8.37;1.97;;;13.40;99.90;;;;;;4937972;29;20216;-66
2023/06/03 00:17:26;;;;;;;6.00;2.50;;;13.30;99.90;;;;;;4937746;29;20228;-65
2023/06/03 00:19:54;;;;;;;8.90;2.40;;;13.30;99.90;;;;;;4937379;29;20272;-65
2023/06/03 00:22:21;;;;;;;3.20;2.00;;;13.30;99.90;;;;;;4937793;29;20216;-65
2023/06/03 00:24:48;;;;;;;5.27;2.10;;;13.30;99.90;;;;;;4937615;29;20237;-65
2023/06/03 00:27:15;;;;;;;5.23;2.60;;;13.30;99.90;;;;;;4937323;29;20239;-65
2023/06/03 00:29:44;;;;;;;4.03;1.90;;;13.30;99.90;;;;;;4937500;29;20295;-65
2023/06/03 00:32:10;;;;;;;9.50;2.33;;;13.40;99.90;;;;;;4937271;29;20640;-65
2023/06/03 00:34:37;;;;;;;5.70;2.30;;;13.40;99.90;;;;;;4937364;29;20219;-65
2023/06/03 00:37:04;;;;;;;5.13;2.40;;;13.30;99.90;;;;;;4937232;29;20228;-65
2023/06/03 00:39:31;;;;;;;3.13;2.03;;;13.10;99.90;;;;;;4937291;29;20668;-65
2023/06/03 00:41:58;;;;;;;5.90;2.10;;;13.20;99.90;;;;;;4937004;29;20213;-65
2023/06/03 00:44:25;;;;;;;3.83;2.03;;;13.20;99.90;;;;;;4936978;29;20243;-65
2023/06/03 00:46:54;;;;;;;3.57;2.40;;;13.20;99.90;;;;;;4937247;29;20292;-65
2023/06/03 00:49:21;;;;;;;3.10;2.30;;;13.20;99.90;;;;;;4936969;29;20763;-65
2023/06/03 00:51:48;;;;;;;6.70;2.30;;;13.20;99.90;;;;;;4936884;29;20294;-65
2023/06/03 00:54:15;;;;;;;3.33;2.10;;;13.40;99.90;;;;;;4937082;29;20303;-65
2023/06/03 00:56:44;;;;;;;4.33;2.10;;;13.60;99.90;;;;;;4936859;29;20326;-65
2023/06/03 00:59:13;;;;;;;5.97;2.00;;;13.50;99.90;;;;;;4936845;29;20679;-65
2023/06/03 01:01:42;;;;;;;4.37;2.10;;;13.40;99.90;;;;;;4936443;29;20572;-66
2023/06/03 01:04:11;;;;;;;6.67;2.60;;;13.40;99.90;;;;;;4936671;29;20259;-66
2023/06/03 01:06:45;;;;;;;5.33;2.70;;;13.20;99.90;;;;;;4936765;29;20232;-65
2023/06/03 01:09:27;;;;;;;4.77;2.30;;;13.20;99.90;;;;;;4936756;29;20255;-64
2023/06/03 01:12:01;;;;;;;4.87;2.10;;;13.30;99.90;;;;;;4936212;29;20217;-65
2023/06/03 01:14:34;;;;;;;6.27;2.40;;;13.30;99.90;;;;;;4936320;29;20297;-64
2023/06/03 01:17:09;;;;;;;6.33;3.00;;;13.20;99.90;;;;;;4936365;29;20285;-65
2023/06/03 01:19:48;;;;;;;3.33;2.17;;;13.10;99.90;;;;;;4936469;29;20247;-66
2023/06/03 01:22:16;;;;;;;6.93;2.57;;;13.00;99.90;;;;;;4936271;29;20275;-67
2023/06/03 01:24:44;;;;;;;5.10;2.37;;;13.10;99.90;;;;;;4936294;29;20237;-69
2023/06/03 01:27:12;;;;;;;7.17;2.60;;;13.00;99.90;;;;;;4936209;29;20323;-65
2023/06/03 01:29:41;;;;;;;4.90;2.60;;;13.10;99.90;;;;;;4935907;29;20215;-65
2023/06/03 01:32:13;;;;;;;5.70;2.30;;;13.10;99.90;;;;;;4936417;29;20208;-65
2023/06/03 01:34:41;;;;;;;5.97;2.67;;;13.10;99.90;;;;;;4936077;29;20216;-69
2023/06/03 01:37:09;;;;;;;4.00;2.30;;;12.90;99.90;;;;;;4935681;29;20232;-65
2023/06/03 01:39:39;;;;;;;5.37;2.63;;;12.90;99.90;;;;;;4936077;29;20276;-64
2023/06/03 01:42:09;;;;;;;3.87;2.63;;;12.80;99.90;;;;;;4935981;29;20209;-65
2023/06/03 01:44:36;;;;;;;7.23;2.87;;;13.00;99.90;;;;;;4935921;29;20373;-69
2023/06/03 01:47:04;;;;;;;5.67;2.40;;;13.10;99.90;;;;;;4936055;29;20231;-66
2023/06/03 01:49:31;;;;;;;5.37;3.03;;;13.00;99.90;;;;;;4936043;29;20303;-66
2023/06/03 01:51:58;;;;;;;6.23;3.10;;;12.90;99.90;;;;;;4936052;29;20215;-66
2023/06/03 01:54:26;;;;;;;7.17;2.50;;;12.90;99.90;;;;;;4935932;29;20208;-66
2023/06/03 01:56:53;;;;;;;8.20;3.63;;;12.90;99.90;;;;;;4935894;29;20298;-65
2023/06/03 01:59:23;;;;;;;7.03;3.10;;;12.70;99.90;;;;;;4936181;29;20282;-66
2023/06/03 02:01:50;;;;;;;7.43;2.80;;;12.80;99.90;;;;;;4936096;29;20217;-66
2023/06/03 02:04:16;;;;;;;5.03;2.67;;;12.80;99.90;;;;;;4935910;29;20703;-67
2023/06/03 02:06:49;;;;;;;4.23;2.43;;;12.70;99.90;;;;;;4935852;29;20229;-66
2023/06/03 02:09:15;;;;;;;6.30;2.57;;;12.70;99.90;;;;;;4935672;29;20725;-66
2023/06/03 02:11:43;;;;;;;9.50;3.13;;;12.70;99.90;;;;;;4936058;29;20231;-69
2023/06/03 02:14:11;;;;;;;4.87;2.53;;;12.60;99.90;;;;;;4935789;29;20212;-65
2023/06/03 02:16:40;;;;;;;3.77;2.63;;;12.70;99.90;;;;;;4935826;29;20235;-67
2023/06/03 02:19:12;;;;;;;5.30;2.67;;;12.60;99.90;;;;;;4935521;29;20213;-65
2023/06/03 02:21:40;;;;;;;6.90;2.50;;;12.50;99.90;;;;;;4935114;29;20213;-66
2023/06/03 02:24:08;;;;;;;8.00;2.93;;;12.40;99.90;;;;;;4935653;29;20205;-65
2023/06/03 02:26:35;;;;;;;7.70;2.70;;;12.40;99.90;;;;;;4935357;29;20228;-66
2023/06/03 02:29:02;;;;;;;5.47;3.13;;;12.40;99.90;;;;;;4935367;29;20676;-66
2023/06/03 02:31:29;;;;;;;5.67;2.63;;;12.40;99.90;;;;;;4935184;29;20643;-65
2023/06/03 02:33:57;;;;;;;3.90;2.40;;;12.30;99.90;;;;;;4935283;29;20211;-68
2023/06/03 02:36:24;;;;;;;6.27;2.80;;;12.40;99.90;;;;;;4935198;29;20239;-67
2023/06/03 02:38:51;;;;;;;5.47;2.73;;;12.40;99.90;;;;;;4935668;29;20212;-66
2023/06/03 02:41:18;;;;;;;5.47;3.00;;;12.30;99.90;;;;;;4935554;29;20572;-66
2023/06/03 02:43:45;;;;;;;7.13;3.10;;;12.30;99.90;;;;;;4935316;29;20299;-65
2023/06/03 02:46:11;;;;;;;5.97;3.00;;;12.30;99.90;;;;;;4935244;29;20331;-66
2023/06/03 02:48:39;;;;;;;8.83;2.93;;;12.30;99.90;;;;;;4935289;29;20226;-66
2023/06/03 02:51:07;;;;;;;5.37;2.70;;;12.20;99.90;;;;;;4935145;29;20303;-65
2023/06/03 02:53:34;;;;;;;4.60;2.63;;;12.20;99.90;;;;;;4935262;29;20296;-65
2023/06/03 02:56:02;;;;;;;7.07;3.37;;;12.10;99.90;;;;;;4934778;29;20209;-66
2023/06/03 02:58:29;;;;;;;6.80;2.93;;;12.10;99.90;;;;;;4935056;29;20235;-67
2023/06/03 03:00:57;;;;;;;9.77;3.10;;;12.10;99.90;;;;;;4935124;29;20308;-65
2023/06/03 03:03:24;;;;;;;6.47;3.47;;;12.00;99.90;;;;;;4935077;29;20215;-66
2023/06/03 03:05:51;;;;;;;4.30;2.80;;;12.00;99.90;;;;;;4935576;29;20237;-65
2023/06/03 03:08:20;;;;;;;4.63;3.20;;;11.90;99.90;;;;;;4935102;29;20726;-66
2023/06/03 03:10:47;;;;;;;8.67;3.03;;;11.90;99.90;;;;;;4935303;29;20219;-66
2023/06/03 03:13:13;;;;;;;8.47;3.47;;;11.90;99.90;;;;;;4935047;29;20216;-67
2023/06/03 03:15:40;;;;;;;5.50;3.13;;;12.00;99.90;;;;;;4935222;29;20359;-65
2023/06/03 03:18:07;;;;;;;6.90;2.77;;;12.00;99.90;;;;;;4935194;29;20229;-68
2023/06/03 03:20:34;;;;;;;5.67;3.00;;;12.00;99.90;;;;;;4935224;29;20219;-65
2023/06/03 03:23:01;;;;;;;8.10;2.67;;;12.00;99.90;;;;;;4935048;29;20212;-65
2023/06/03 03:25:30;;;;;;;6.77;3.07;;;11.90;99.90;;;;;;4935717;29;20291;-70
2023/06/03 03:27:59;;;;;;;4.00;2.97;;;11.90;99.90;;;;;;4938122;29;20584;-65
2023/06/03 03:30:26;;;;;;;4.83;3.17;;;11.90;99.90;;;;;;4938299;29;20216;-66
2023/06/03 03:32:53;;;;;;;8.10;2.87;;;11.90;99.90;;;;;;4938167;29;20208;-67
2023/06/03 03:35:21;;;;;;;5.80;3.17;;;11.90;99.90;;;;;;4938341;29;20209;-66
2023/06/03 03:37:51;;;;;;;8.03;3.30;;;11.80;99.90;;;;;;4937989;29;20722;-66
2023/06/03 03:40:23;;;;;;;7.23;3.07;;;11.80;99.90;;;;;;4937893;29;20211;-66
2023/06/03 03:42:52;;;;;;;4.57;3.00;;;11.90;99.90;;;;;;4938085;29;20292;-65
2023/06/03 03:45:21;;;;;;;5.03;3.40;;;11.90;99.90;;;;;;4938119;29;20232;-66
2023/06/03 03:47:50;;;;;;;5.33;2.73;;;11.90;99.90;;;;;;4938319;29;20233;-66
2023/06/03 03:50:34;;;;;;;5.87;3.10;;;11.90;99.90;;;;;;4938370;29;20216;-66
2023/06/03 03:53:05;;;;;;;4.77;3.00;;;11.90;99.90;;;;;;4938240;29;20213;-67
2023/06/03 03:55:32;;;;;;;7.07;3.10;;;12.00;99.90;;;;;;4937903;29;20209;-66
2023/06/03 03:58:05;;;;;;;4.90;2.93;;;12.00;99.90;;;;;;4937911;29;20256;-65
2023/06/03 04:00:33;;;;;;;6.77;3.53;;;12.00;99.90;;;;;;4938151;29;20215;-66
2023/06/03 04:03:00;;;;;;;6.50;2.77;;;12.00;99.90;;;;;;4937985;29;20209;-65
2023/06/03 04:05:27;;;;;;;4.53;2.63;;;12.00;99.90;;;;;;4937573;29;20327;-65
2023/06/03 04:07:55;;;;;;;4.60;2.90;;;12.10;99.90;;;;;;4937999;29;20225;-66
2023/06/03 04:10:22;;;;;;;5.90;3.20;;;12.10;99.90;;;;;;4937894;29;20209;-66
2023/06/03 04:12:49;;;;;;;7.53;3.43;;;12.20;99.90;;;;;;4937449;29;20224;-65
2023/06/03 04:15:24;;;;;;;6.10;3.27;;;12.20;99.90;;;;;;4937627;29;20686;-65
2023/06/03 04:17:51;;;;;;;5.67;2.80;;;12.20;99.90;;;;;;4937501;29;20264;-65
2023/06/03 04:20:39;;;;;;;6.40;3.10;;;12.30;99.90;;;;;;4937315;29;20215;-68
2023/06/03 04:23:06;;;;;;;6.27;3.27;;;12.30;99.90;;;;;;4937444;29;20219;-67
2023/06/03 04:25:34;;;;;;;6.37;4.07;;;12.50;99.90;;;;;;4937408;29;20258;-65
2023/06/03 04:28:01;;;;;;;5.40;3.37;;;12.50;99.90;;;;;;4937334;29;20763;-65
2023/06/03 04:30:29;;;;;;;8.03;4.03;;;12.50;99.90;;;;;;4937349;29;20211;-65
2023/06/03 04:32:56;;;;;;;8.60;3.90;;;12.50;99.90;;;;;;4937281;29;20307;-65
2023/06/03 04:35:23;;;;;;;5.00;3.40;;;12.70;99.90;;;;;;4937109;29;20220;-68
2023/06/03 04:37:51;;;;;;;4.53;3.37;;;12.60;99.90;;;;;;4935958;29;20229;-65
2023/06/03 04:40:17;;;;;;;6.30;3.70;;;12.70;99.90;;;;;;4937258;29;20303;-65
2023/06/03 04:42:46;;;;;;;7.80;3.80;;;12.80;99.90;;;;;;4937208;29;20209;-65
2023/06/03 04:45:13;;;;;;;8.13;3.80;;;12.80;99.90;;;;;;4936875;29;20255;-65
2023/06/03 04:47:42;;;;;;;9.47;3.40;;;12.80;99.90;;;;;;4936436;29;20704;-65
2023/06/03 04:50:10;;;;;;;7.00;3.20;;;12.70;99.90;;;;;;4937219;29;20236;-65
2023/06/03 04:52:37;;;;;;;8.77;3.60;;;12.80;99.90;;;;;;4936912;29;20293;-66
2023/06/03 04:55:04;;;;;;;8.50;3.50;;;13.10;99.90;;;;;;4937185;29;20227;-65
2023/06/03 04:57:31;;;;;;;7.53;3.50;;;13.90;99.90;;;;;;4936704;29;20815;-65
2023/06/03 04:59:58;;;;;;;4.00;3.07;;;14.60;99.90;;;;;;4936806;29;20205;-70
2023/06/03 05:02:29;;;;;;;6.33;2.83;;;15.40;99.90;;;;;;4937006;29;20233;-65
2023/06/03 05:04:58;;;;;;;8.73;3.17;;;16.10;99.90;;;;;;4936678;29;20719;-68
2023/06/03 05:07:26;;;;;;;4.27;2.60;;;16.70;99.90;;;;;;4936806;29;20313;-70
2023/06/03 05:09:53;;;;;;;3.58;2.45;;;17.00;99.90;;;;;;4936806;29;20211;-65
2023/06/03 05:12:20;;;;;;;6.50;3.22;;;17.40;99.90;;;;;;4936664;29;20289;-67
2023/06/03 05:14:47;;;;;;;6.22;2.60;;;17.70;99.90;;;;;;4936159;29;20241;-73
2023/06/03 05:17:14;;;;;;;6.80;2.70;;;18.00;99.90;;;;;;4936160;29;20259;-66
2023/06/03 05:19:41;;;;;;;4.50;2.50;;;18.50;99.90;;;;;;4930360;29;20656;-67
2023/06/03 05:22:09;;;;;;;10.82;2.85;;;19.40;99.90;;;;;;4934630;29;20295;-67
2023/06/03 05:24:36;;;;;;;6.28;2.30;;;20.00;99.90;;;;;;4934832;29;20205;-67
2023/06/03 05:27:03;;;;;;;4.88;2.90;;;20.00;99.90;;;;;;4934139;29;20240;-66
2023/06/03 05:29:30;;;;;;;8.30;2.50;;;19.80;99.90;;;;;;4934719;29;20237;-69
2023/06/03 05:31:57;;;;;;;5.75;2.50;;;19.80;99.90;;;;;;4934986;29;20671;-65
2023/06/03 05:34:24;;;;;;;6.07;2.70;;;20.20;99.90;;;;;;4934241;29;20501;-66
2023/06/03 05:36:50;;;;;;;7.32;3.20;;;20.10;99.90;;;;;;4934495;29;20320;-66
2023/06/03 05:39:19;;;;;;;6.57;2.50;;;20.20;99.90;;;;;;4934453;29;20238;-66
2023/06/03 05:41:45;;;;;;;4.57;2.53;;;21.00;99.90;;;;;;4933894;29;20668;-66
2023/06/03 05:44:12;;;;;;;4.35;2.25;;;21.30;99.90;;;;;;4934581;29;20219;-68
2023/06/03 05:46:39;;;;;;;4.43;2.15;;;21.00;99.90;;;;;;4934461;29;20241;-67
2023/06/03 05:49:06;;;;;;;6.22;3.25;;;21.20;99.90;;;;;;4933717;29;20219;-66
2023/06/03 05:51:32;;;;;;;4.38;2.58;;;21.60;99.90;;;;;;4934903;29;20212;-67
2023/06/03 05:53:59;;;;;;;6.05;2.33;;;21.90;99.90;;;;;;4934530;29;20218;-66
2023/06/03 05:56:28;;;;;;;4.10;2.35;;;22.30;99.90;;;;;;4933930;29;20236;-66
2023/06/03 05:58:54;;;;;;;4.40;2.33;;;22.60;99.90;;;;;;4934322;29;20205;-67
2023/06/03 06:01:21;;;;;;;4.88;2.50;;;23.20;99.90;;;;;;4934570;29;20212;-67
2023/06/03 06:03:48;;;;;;;4.20;2.42;;;23.90;99.40;;;;;;4933910;29;20218;-66
2023/06/03 06:06:16;;;;;;;5.80;2.25;;;24.00;99.00;;;;;;4933923;29;20300;-66
2023/06/03 06:08:43;;;;;;;5.28;2.38;;;24.10;99.40;;;;;;4933748;29;20690;-68
2023/06/03 06:11:10;;;;;;;5.05;1.95;;;24.50;99.00;;;;;;4933537;29;20220;-67
2023/06/03 06:13:38;;;;;;;3.78;1.95;;;24.10;98.40;;;;;;4934035;29;20209;-66
2023/06/03 06:16:06;;;;;;;5.32;2.00;;;23.70;98.50;;;;;;4934068;29;20295;-68
2023/06/03 06:18:33;;;;;;;4.63;2.00;;;23.80;98.50;;;;;;4933412;29;20201;-67
2023/06/03 06:21:00;;;;;;;4.07;1.73;;;24.00;98.60;;;;;;4934016;29;20688;-67
2023/06/03 06:23:27;;;;;;;6.32;2.40;;;24.00;97.90;;;;;;4929325;29;20205;-66
2023/06/03 06:25:55;;;;;;;3.53;2.00;;;24.70;97.20;;;;;;4934169;29;20236;-66
2023/06/03 06:28:26;;;;;;;4.47;2.10;;;24.10;97.20;;;;;;4934175;29;20229;-66
2023/06/03 06:30:56;;;;;;;3.55;2.00;;;24.20;96.50;;;;;;4933853;29;20215;-66
2023/06/03 06:33:23;;;;;;;4.20;2.03;;;23.80;96.80;;;;;;4933898;29;20452;-66
2023/06/03 06:35:50;;;;;;;3.45;1.80;;;23.70;96.90;;;;;;4933558;29;20248;-66
2023/06/03 06:38:16;;;;;;;6.50;2.33;;;23.20;97.40;;;;;;4933263;29;20703;-68
2023/06/03 06:40:45;;;;;;;3.72;2.00;;;23.40;98.30;;;;;;4933963;29;20211;-67
2023/06/03 06:43:16;;;;;;;3.50;1.83;;;24.00;98.40;;;;;;4926682;29;20235;-69
2023/06/03 06:45:43;;;;;;;3.85;1.80;;;24.50;97.30;;;;;;4926327;29;20229;-68
2023/06/03 06:48:12;;;;;;;8.05;3.10;;;25.10;97.20;;;;;;4933496;29;20229;-68
2023/06/03 06:50:47;;;;;;;3.38;2.05;;;25.40;96.40;;;;;;4949040;29;20675;-68
2023/06/03 06:53:14;;;;;;;4.15;2.20;;;25.00;96.80;;;;;;4944674;29;20216;-67
2023/06/03 06:55:47;;;;;;;3.45;2.10;;;24.60;97.00;;;;;;4934036;29;20223;-68
2023/06/03 06:58:15;;;;;;;5.43;1.77;;;24.70;97.10;;;;;;4933657;29;20280;-68
2023/06/03 07:00:42;;;;;;;5.00;2.08;;;25.70;95.90;;;;;;4934582;29;20208;-68
2023/06/03 07:03:13;;;;;;;4.70;2.40;;;25.60;95.80;;;;;;4949075;29;20223;-67
2023/06/03 07:05:40;;;;;;;4.00;1.85;;;25.60;96.10;;;;;;4937215;29;20232;-68
2023/06/03 07:08:07;;;;;;;4.75;2.33;;;24.60;96.50;;;;;;4936727;29;20575;-68
2023/06/03 07:10:35;;;;;;;5.85;2.42;;;24.40;97.00;;;;;;4937272;29;20219;-68
2023/06/03 07:13:02;;;;;;;3.75;2.10;;;24.80;96.40;;;;;;4932291;29;20253;-67
2023/06/03 07:15:30;;;;;;;3.45;1.80;;;24.60;96.10;;;;;;4917654;29;20210;-69
2023/06/03 07:17:58;;;;;;;4.78;1.65;;;24.40;95.90;;;;;;4920908;29;20233;-69
2023/06/03 07:20:32;;;;;;;7.05;1.90;;;24.40;96.10;;;;;;4937110;29;20239;-69
2023/06/03 07:23:00;;;;;;;2.90;1.73;;;24.40;96.00;;;;;;4935447;29;20636;-68
2023/06/03 07:25:34;;;;;;;2.65;1.52;;;23.80;96.30;;;;;;4936842;29;20211;-70
2023/06/03 07:28:04;;;;;;;3.42;1.58;;;23.50;97.10;;;;;;4937038;29;20279;-71
2023/06/03 07:30:31;;;;;;;3.75;1.65;;;24.00;97.10;;;;;;4936614;29;20212;-69
2023/06/03 07:32:59;;;;;;;4.50;1.80;;;24.20;95.80;;;;;;4935323;29;20296;-70
2023/06/03 07:35:28;;;;;;;3.67;1.67;;;23.70;96.40;;;;;;4936677;29;20630;-69
2023/06/03 07:37:56;;;;;;;4.65;1.70;;;23.60;96.20;;;;;;4938742;29;20255;-69
2023/06/03 07:40:33;;;;;;;2.65;1.40;;;23.60;96.40;;;;;;4936672;29;20664;-69
2023/06/03 07:43:00;;;;;;;3.17;1.48;;;24.50;95.30;;;;;;4920475;29;20205;-68
2023/06/03 07:45:27;;;;;;;4.28;1.80;;;24.20;95.70;;;;;;4936505;29;20593;-70
2023/06/03 07:47:57;;;;;;;3.70;1.40;;;23.60;96.10;;;;;;4936174;29;20236;-69
2023/06/03 07:50:26;;;;;;;3.30;1.35;;;23.90;97.00;;;;;;4936432;29;20690;-70
2023/06/03 07:53:00;;;;;;;4.60;1.73;;;24.30;95.90;;;;;;4934757;29;20212;-70
2023/06/03 07:55:29;;;;;;;4.78;1.73;;;24.60;95.40;;;;;;4936055;29;20635;-70
2023/06/03 07:57:56;;;;;;;2.65;1.20;;;25.30;94.80;;;;;;4936279;29;20236;-70
2023/06/03 08:00:23;;;;;;;2.65;1.30;;;25.70;94.00;;;;;;4936081;29;20213;-69
2023/06/03 08:02:51;;;;;;;4.63;1.48;;;25.40;93.40;;;;;;4935209;29;20214;-70
2023/06/03 08:05:25;;;;;;;3.15;1.35;;;24.90;94.30;;;;;;4936126;29;20209;-71
2023/06/03 08:07:52;;;;;;;3.55;1.30;;;25.10;93.60;;;;;;4929852;29;20242;-71
2023/06/03 08:10:23;;;;;;;3.45;1.40;;;24.50;93.70;;;;;;4935862;29;20542;-71
2023/06/03 08:12:51;;;;;;;3.78;1.20;;;24.90;94.60;;;;;;4934346;29;20213;-70
2023/06/03 08:15:26;;;;;;;6.85;1.45;;;25.60;94.20;;;;;;4935698;29;20219;-70
2023/06/03 08:17:54;;;;;;;1.98;1.00;;;26.30;92.50;;;;;;4937886;29;20236;-69
2023/06/03 08:20:24;;;;;;;2.38;1.08;;;25.30;93.20;;;;;;4938428;29;20205;-69
2023/06/03 08:22:51;;;;;;;1.50;1.20;;;25.00;93.40;;;;;;4938066;29;20202;-70
2023/06/03 08:25:18;;;;;;;2.80;1.27;;;25.20;92.60;;;;;;4937731;29;20223;-69
2023/06/03 08:27:46;;;;;;;1.90;0.82;;;24.90;93.10;;;;;;4936073;29;20247;-70
2023/06/03 08:30:14;;;;;;;2.33;1.10;;;24.70;92.80;;;;;;4936113;29;20236;-70
2023/06/03 08:32:41;;;;;;;1.50;0.95;;;24.00;92.90;;;;;;4934846;29;20268;-69
2023/06/03 08:35:09;;;;;;;5.07;1.00;;;23.60;92.90;;;;;;4929967;29;20216;-71
2023/06/03 08:37:36;;;;;;;3.13;1.02;;;23.50;92.40;;;;;;4919771;29;20233;-72
2023/06/03 08:40:07;;;;;;;1.40;0.90;;;23.60;93.60;;;;;;4954395;28;20209;-70
2023/06/03 08:42:41;;;;;;;1.75;1.17;;;23.60;93.60;;;;;;4949721;28;20209;-69
2023/06/03 08:45:10;;;;;;;4.30;1.00;;;24.00;92.20;;;;;;4947801;28;20714;-71
2023/06/03 08:48:01;;;;;;;2.00;0.70;;;23.90;92.50;;;;;;4955347;28;20243;-72
2023/06/03 08:50:29;;;;;;;2.33;1.00;;;24.00;92.50;;;;;;4954807;28;20211;-73
2023/06/03 08:52:56;;;;;;;4.78;0.90;;;23.70;91.90;;;;;;4950317;28;20291;-76
2023/06/03 08:55:23;;;;;;;2.72;1.00;;;23.50;92.40;;;;;;4936225;28;20211;-72
2023/06/03 08:57:56;;;;;;;1.50;0.80;;;23.70;91.90;;;;;;4935846;29;20327;-71
2023/06/03 09:00:27;;;;;;;2.25;0.85;;;23.50;91.60;;;;;;4935219;29;20229;-71
2023/06/03 09:02:54;;;;;;;3.05;0.73;;;23.40;91.80;;;;;;4931574;29;20244;-70
2023/06/03 09:05:21;;;;;;;1.08;0.70;;;23.30;91.10;;;;;;4935043;29;20208;-68
2023/06/03 09:07:49;;;;;;;3.17;0.88;;;23.10;90.60;;;;;;4934808;29;20236;-73
2023/06/03 09:10:17;;;;;;;1.90;1.15;;;23.00;91.10;;;;;;4935135;29;20253;-70
2023/06/03 09:12:45;;;;;;;2.22;0.90;;;22.90;90.90;;;;;;4934221;29;20311;-71
2023/06/03 09:15:14;;;;;;;2.40;0.93;;;22.80;91.10;;;;;;4935150;29;20207;-72
2023/06/03 09:17:42;;;;;;;2.65;0.80;;;22.90;91.90;;;;;;4934864;29;20629;-70
2023/06/03 09:20:11;;;;;;;3.10;0.68;;;22.90;90.60;;;;;;4934943;29;20215;-70
